St Charlotte — FWBM — position and weather

sailwx.info

Track history (hours):
 
Tides and Currents Weather Stations Pressure Air Temp Water Temp Dewpoint Dewpoint Depression Visibility Wind Speed Wind Dir Waves Ship Positions

St Charlotte

Last reported at 2014-Sep-14 18:24 UTC. Time now 2014-Sep-23 20:20 UTC.
Position N 49°35' W 000°24'.
Warning: this ship's position is 9 days out of date.

Length 129 m; draft 8.2 m.

Type: Tanker. MMSI: 228331700.

Date/timePositionNaut miles runAvg speedWind from/ knotsBaromVisibWave heightAir tempDewpointWater temp
2014-Sep-14 18:24N 49°35' W 000°24'1213.8
2014-Sep-14 17:33N 49°31' W 000°07'1111.2
2014-Sep-14 16:34N 49°28' E 000°09'1 1.2
2014-Sep-14 15:28N 49°29' E 000°11'0 0.0
2014-Sep-14 14:31N 49°29' E 000°11'0 0.0
2014-Sep-14 13:31N 49°29' E 000°11'0 0.0
2014-Sep-14 12:28N 49°29' E 000°11'0 0.0
2014-Sep-14 11:31N 49°29' E 000°11'0 0.0
2014-Sep-14 10:28N 49°29' E 000°11'0 0.0
2014-Sep-14 09:28N 49°29' E 000°11'0 0.0
2014-Sep-14 08:31N 49°29' E 000°11'0 0.0
2014-Sep-14 07:28N 49°29' E 000°11'0 0.0
2014-Sep-14 06:28N 49°29' E 000°11'0 0.0
2014-Sep-14 05:31N 49°29' E 000°11'0 0.0
2014-Sep-14 04:31N 49°29' E 000°11'0 0.0
2014-Sep-14 03:31N 49°29' E 000°11'0 0.0
2014-Sep-14 02:31N 49°29' E 000°11'0 0.0
2014-Sep-14 01:31N 49°29' E 000°11'0 0.0
2014-Sep-13 21:31N 49°29' E 000°11'0 0.0
2014-Sep-13 20:34N 49°29' E 000°11'1 0.6
2014-Sep-13 19:33N 49°29' E 000°10'3 3.1
2014-Sep-13 18:33N 49°29' E 000°05'7 6.6
2014-Sep-13 17:32N 49°30' W 000°05'0 0.1
2014-Sep-13 16:26N 49°30' W 000°05'0 0.0
2014-Sep-13 15:32N 49°30' W 000°05'0 0.0
2014-Sep-13 14:32N 49°30' W 000°05'0 0.0
2014-Sep-13 13:32N 49°30' W 000°05'0 0.0
2014-Sep-13 12:32N 49°30' W 000°05'0 0.1
2014-Sep-13 11:32N 49°30' W 000°05'0 0.0
2014-Sep-13 10:32N 49°30' W 000°05'0 0.0
2014-Sep-13 09:32N 49°30' W 000°05'0 0.1
2014-Sep-13 08:32N 49°30' W 000°05'0 0.0
2014-Sep-13 07:32N 49°30' W 000°05'0 0.0
2014-Sep-13 06:32N 49°30' W 000°05'0 0.0
2014-Sep-13 05:32N 49°30' W 000°05'0 0.0
2014-Sep-13 04:32N 49°30' W 000°05'0 0.0
2014-Sep-13 03:32N 49°30' W 000°05'0 0.0
2014-Sep-13 02:32N 49°30' W 000°05'0 0.0
2014-Sep-13 01:32N 49°30' W 000°05'0 0.1
2014-Sep-13 00:32N 49°30' W 000°05'0 0.0
2014-Sep-12 23:32N 49°30' W 000°05'0 0.2
2014-Sep-12 22:32N 49°30' W 000°05'0 0.0
2014-Sep-12 21:32N 49°30' W 000°05'0 0.0
2014-Sep-12 20:32N 49°30' W 000°05'0 0.1
2014-Sep-12 19:32N 49°30' W 000°05'0 0.0
2014-Sep-12 18:32N 49°30' W 000°05'0 0.0
2014-Sep-12 17:32N 49°30' W 000°05'0 0.0
2014-Sep-12 16:32N 49°30' W 000°05'0 0.0
2014-Sep-12 15:32N 49°30' W 000°05'0 0.0
2014-Sep-12 14:32N 49°30' W 000°05'0 0.0
2014-Sep-12 13:32N 49°30' W 000°05'0 0.1
2014-Sep-12 12:32N 49°30' W 000°05'0 0.1
2014-Sep-12 11:32N 49°30' W 000°05'0 0.0
2014-Sep-12 10:32N 49°30' W 000°05'0 0.1
2014-Sep-12 09:32N 49°30' W 000°05'0 0.1
2014-Sep-12 08:32N 49°30' W 000°05'0 0.1
2014-Sep-12 07:32N 49°30' W 000°05'0 0.0
2014-Sep-12 06:32N 49°30' W 000°05'0 0.0
2014-Sep-12 05:32N 49°30' W 000°05'0 0.0
2014-Sep-12 04:32N 49°30' W 000°05'0 0.0
2014-Sep-12 03:32N 49°30' W 000°05'0 0.0
2014-Sep-12 02:32N 49°30' W 000°05'0 0.0
2014-Sep-12 01:32N 49°30' W 000°05'0 0.0
2014-Sep-12 00:32N 49°30' W 000°05'0 0.2
2014-Sep-11 23:32N 49°30' W 000°05'0 0.0
2014-Sep-11 22:32N 49°30' W 000°05'0 0.1
2014-Sep-11 21:32N 49°30' W 000°05'0 0.0
2014-Sep-11 20:32N 49°30' W 000°05'0 0.1
2014-Sep-11 19:32N 49°30' W 000°05'0 0.4
2014-Sep-11 18:33N 49°30' W 000°05'9 8.9
2014-Sep-11 17:33N 49°34' W 000°17'1211.8
2014-Sep-11 16:32N 49°39' W 000°34'  
2014-Sep-08 22:21N 38°37' W 009°24'1012.0
2014-Sep-08 21:33N 38°41' W 009°13'1 1.0
2014-Sep-08 20:33N 38°41' W 009°12'0 0.0
2014-Sep-08 19:33N 38°41' W 009°12'0 0.0
2014-Sep-08 18:33N 38°41' W 009°12'0 0.0
2014-Sep-08 17:33N 38°41' W 009°12'0 0.0
2014-Sep-08 16:33N 38°41' W 009°12'4 4.4
2014-Sep-08 15:33N 38°41' W 009°18'1111.5
2014-Sep-08 14:33N 38°31' W 009°25'  
Track history (hours):
 
Tides and Currents Weather Stations Pressure Air Temp Water Temp Dewpoint Dewpoint Depression Visibility Wind Speed Wind Dir Waves Ship Positions

St Charlotte

Last reported at 2014-Sep-14 18:24 UTC. Time now 2014-Sep-23 20:20 UTC.
Position N 49°35' W 000°24'.
Warning: this ship's position is 9 days out of date.

Length 129 m; draft 8.2 m.

Type: Tanker. MMSI: 228331700.

Date/timePositionNaut miles runAvg speedWind from/ knotsBaromVisibWave heightAir tempDewpointWater temp
2014-Sep-14 18:24N 49°35' W 000°24'1213.8
2014-Sep-14 17:33N 49°31' W 000°07'1111.2
2014-Sep-14 16:34N 49°28' E 000°09'1 1.2
2014-Sep-14 15:28N 49°29' E 000°11'0 0.0
2014-Sep-14 14:31N 49°29' E 000°11'0 0.0
2014-Sep-14 13:31N 49°29' E 000°11'0 0.0
2014-Sep-14 12:28N 49°29' E 000°11'0 0.0
2014-Sep-14 11:31N 49°29' E 000°11'0 0.0
2014-Sep-14 10:28N 49°29' E 000°11'0 0.0
2014-Sep-14 09:28N 49°29' E 000°11'0 0.0
2014-Sep-14 08:31N 49°29' E 000°11'0 0.0
2014-Sep-14 07:28N 49°29' E 000°11'0 0.0
2014-Sep-14 06:28N 49°29' E 000°11'0 0.0
2014-Sep-14 05:31N 49°29' E 000°11'0 0.0
2014-Sep-14 04:31N 49°29' E 000°11'0 0.0
2014-Sep-14 03:31N 49°29' E 000°11'0 0.0
2014-Sep-14 02:31N 49°29' E 000°11'0 0.0
2014-Sep-14 01:31N 49°29' E 000°11'0 0.0
2014-Sep-13 21:31N 49°29' E 000°11'0 0.0
2014-Sep-13 20:34N 49°29' E 000°11'1 0.6
2014-Sep-13 19:33N 49°29' E 000°10'3 3.1
2014-Sep-13 18:33N 49°29' E 000°05'7 6.6
2014-Sep-13 17:32N 49°30' W 000°05'0 0.1
2014-Sep-13 16:26N 49°30' W 000°05'0 0.0
2014-Sep-13 15:32N 49°30' W 000°05'0 0.0
2014-Sep-13 14:32N 49°30' W 000°05'0 0.0
2014-Sep-13 13:32N 49°30' W 000°05'0 0.0
2014-Sep-13 12:32N 49°30' W 000°05'0 0.1
2014-Sep-13 11:32N 49°30' W 000°05'0 0.0
2014-Sep-13 10:32N 49°30' W 000°05'0 0.0
2014-Sep-13 09:32N 49°30' W 000°05'0 0.1
2014-Sep-13 08:32N 49°30' W 000°05'0 0.0
2014-Sep-13 07:32N 49°30' W 000°05'0 0.0
2014-Sep-13 06:32N 49°30' W 000°05'0 0.0
2014-Sep-13 05:32N 49°30' W 000°05'0 0.0
2014-Sep-13 04:32N 49°30' W 000°05'0 0.0
2014-Sep-13 03:32N 49°30' W 000°05'0 0.0
2014-Sep-13 02:32N 49°30' W 000°05'0 0.0
2014-Sep-13 01:32N 49°30' W 000°05'0 0.1
2014-Sep-13 00:32N 49°30' W 000°05'0 0.0
2014-Sep-12 23:32N 49°30' W 000°05'0 0.2
2014-Sep-12 22:32N 49°30' W 000°05'0 0.0
2014-Sep-12 21:32N 49°30' W 000°05'0 0.0
2014-Sep-12 20:32N 49°30' W 000°05'0 0.1
2014-Sep-12 19:32N 49°30' W 000°05'0 0.0
2014-Sep-12 18:32N 49°30' W 000°05'0 0.0
2014-Sep-12 17:32N 49°30' W 000°05'0 0.0
2014-Sep-12 16:32N 49°30' W 000°05'0 0.0
2014-Sep-12 15:32N 49°30' W 000°05'0 0.0
2014-Sep-12 14:32N 49°30' W 000°05'0 0.0
2014-Sep-12 13:32N 49°30' W 000°05'0 0.1
2014-Sep-12 12:32N 49°30' W 000°05'0 0.1
2014-Sep-12 11:32N 49°30' W 000°05'0 0.0
2014-Sep-12 10:32N 49°30' W 000°05'0 0.1
2014-Sep-12 09:32N 49°30' W 000°05'0 0.1
2014-Sep-12 08:32N 49°30' W 000°05'0 0.1
2014-Sep-12 07:32N 49°30' W 000°05'0 0.0
2014-Sep-12 06:32N 49°30' W 000°05'0 0.0
2014-Sep-12 05:32N 49°30' W 000°05'0 0.0
2014-Sep-12 04:32N 49°30' W 000°05'0 0.0
2014-Sep-12 03:32N 49°30' W 000°05'0 0.0
2014-Sep-12 02:32N 49°30' W 000°05'0 0.0
2014-Sep-12 01:32N 49°30' W 000°05'0 0.0
2014-Sep-12 00:32N 49°30' W 000°05'0 0.2
2014-Sep-11 23:32N 49°30' W 000°05'0 0.0
2014-Sep-11 22:32N 49°30' W 000°05'0 0.1
2014-Sep-11 21:32N 49°30' W 000°05'0 0.0
2014-Sep-11 20:32N 49°30' W 000°05'0 0.1
2014-Sep-11 19:32N 49°30' W 000°05'0 0.4
2014-Sep-11 18:33N 49°30' W 000°05'9 8.9
2014-Sep-11 17:33N 49°34' W 000°17'1211.8
2014-Sep-11 16:32N 49°39' W 000°34'  
2014-Sep-08 22:21N 38°37' W 009°24'1012.0
2014-Sep-08 21:33N 38°41' W 009°13'1 1.0
2014-Sep-08 20:33N 38°41' W 009°12'0 0.0
2014-Sep-08 19:33N 38°41' W 009°12'0 0.0
2014-Sep-08 18:33N 38°41' W 009°12'0 0.0
2014-Sep-08 17:33N 38°41' W 009°12'0 0.0
2014-Sep-08 16:33N 38°41' W 009°12'4 4.4
2014-Sep-08 15:33N 38°41' W 009°18'1111.5
2014-Sep-08 14:33N 38°31' W 009°25'  

Dump ship's entire track history